Grande Prairie Airport
CYQU : rendu visible

Aérodrome :











RETROUVEZ-NOUS SUR...

 
LOGIN :

S'inscrire | Disclaimer

   EN    FR    IT 

 









Légende :    VFR   VFR Marginal   IFR   IFR Intensif   IFR Très Intensif
Visi : 
Plafond : 
>= 8 km
>= 3000ft
5 à 8 km
1000 à 3000 ft
1500m à 5 km
500 à 1000 ft
800 à 1500m
200 à 500 ft
< 800m
< 200 ft
Symboles :   Orages  Brouillard  Fortes neiges  Fortes précipitations  Vent > 20 kt






- Altitude de l'aérodrome : 2195 ft
- Code IATA : YQU


CYQU - Grande Prairie

DERNIER METAR :
  • 201600Z 09004KT 060V160 25SM FEW250 M08/M09 A3003 RMK CI1 CI TR SLP215

METARs EXPIRÉS :
  • 201500Z 10003KT 25SM FEW240 M06/M08 A3005 RMK CI1 SLP217
  • 201400Z 20005KT 25SM SKC M06/M08 A3007 RMK SLP224

TAF TAF CYQU
Valide du 20 à 13h jusqu'au 21 à 01h UTC


201238Z 2013/2101 VRB03KT P6SM SKC
PROB30 2013/2016 1/2SM FZFG VV002
FM201600 24006KT P6SM FEW250 RMK NXT FCST BY 201900Z



MET'MAP, la Météo Aéronautique d'un coup d'oeil ! - Copyright ORBIFLY Décembre 2007 - Disclaimer

ORBIFLY MET'MAP TEAM :

Programmation & Développement : Alexandra Zaïnal
Conception & Développement : Baudouin d'Aumeries
Co-Programmation & Développement : Marc-Olivier Méhu
Soutien technique & logistique : Manuel Goepfert

Contact : metmap@orbifly.com




SOURCES & CREDITS :

   NOAA       Earth
Advisory